Time;durP1;ratioP1;P1;durP2;ratioP2;P2;SDS_P1;SDS_P2;PMS_P1;PMS_P2;Temp;Humidity;BMP_temperature;BMP_pressure;BME280_temperature;BME280_humidity;BME280_pressure;Samples;Min_cycle;Max_cycle;Signal;HPM_P1;HPM_P2
2022/01/17 00:01:11;;;;;;;89.83;12.80;;;;;;;4.39;100.00;99102.44;5153590;27;20617;-66
2022/01/17 00:03:37;;;;;;;52.70;10.70;;;;;;;4.48;100.00;99098.63;5149106;27;20635;-66
2022/01/17 00:06:04;;;;;;;32.23;9.63;;;;;;;4.08;100.00;99088.81;5153404;27;20618;-67
2022/01/17 00:08:33;;;;;;;68.07;11.23;;;;;;;4.10;100.00;99079.66;5135051;27;20615;-67
2022/01/17 00:11:00;;;;;;;66.00;11.70;;;;;;;4.15;100.00;99076.44;5153417;27;20653;-66
2022/01/17 00:13:28;;;;;;;78.10;12.23;;;;;;;4.00;100.00;99063.31;5153383;27;20689;-66
2022/01/17 00:15:59;;;;;;;67.57;10.70;;;;;;;3.93;100.00;99062.44;5153537;27;20617;-66
2022/01/17 00:18:42;;;;;;;68.10;10.33;;;;;;;3.94;100.00;99072.03;5145408;27;20611;-65
2022/01/17 00:21:09;;;;;;;79.53;11.07;;;;;;;4.06;100.00;99059.91;5153147;27;20599;-66
2022/01/17 00:23:37;;;;;;;44.97;9.47;;;;;;;3.93;100.00;99062.44;5153052;27;20614;-66
2022/01/17 00:26:05;;;;;;;73.20;12.07;;;;;;;4.01;100.00;99056.22;5153236;27;20591;-66
2022/01/17 00:28:32;;;;;;;54.43;11.10;;;;;;;3.85;100.00;99043.28;5153074;27;20599;-66
2022/01/17 00:30:59;;;;;;;54.53;10.67;;;;;;;3.75;100.00;99025.13;5153065;27;20623;-66
2022/01/17 00:33:26;;;;;;;49.73;11.00;;;;;;;3.69;100.00;99012.69;5153041;27;20636;-67
2022/01/17 00:35:52;;;;;;;102.67;13.20;;;;;;;3.91;100.00;99016.91;5152975;27;20634;-66
2022/01/17 00:38:19;;;;;;;51.93;10.40;;;;;;;4.07;100.00;99035.13;5152804;27;20611;-66
2022/01/17 00:40:47;;;;;;;107.47;14.33;;;;;;;4.08;100.00;99030.66;5152745;27;20590;-66
2022/01/17 00:43:14;;;;;;;68.23;10.27;;;;;;;4.04;100.00;99042.59;5152712;27;20629;-66
2022/01/17 00:45:43;;;;;;;68.47;11.57;;;;;;;4.02;100.00;99031.44;5152875;27;20614;-66
2022/01/17 00:48:11;;;;;;;54.60;11.60;;;;;;;4.16;100.00;99043.69;5152721;27;20625;-66
2022/01/17 00:50:38;;;;;;;77.30;10.77;;;;;;;4.11;100.00;99057.50;5152431;27;20618;-66
2022/01/17 00:53:06;;;;;;;46.87;11.70;;;;;;;4.00;100.00;99081.81;5152629;27;20605;-66
2022/01/17 00:55:33;;;;;;;52.50;10.13;;;;;;;4.08;100.00;99081.69;5152542;27;20605;-65
2022/01/17 00:58:02;;;;;;;73.67;9.90;;;;;;;4.15;100.00;99102.88;5152454;27;20653;-66
2022/01/17 01:00:28;;;;;;;63.27;11.27;;;;;;;4.12;100.00;99090.03;5152002;27;20607;-65
2022/01/17 01:02:55;;;;;;;82.97;11.80;;;;;;;4.25;100.00;99093.59;5152357;27;20602;-65
2022/01/17 01:05:22;;;;;;;70.17;12.27;;;;;;;4.22;100.00;99082.59;5143886;27;20622;-66
2022/01/17 01:07:50;;;;;;;66.90;9.87;;;;;;;4.04;100.00;99088.38;5152258;27;20627;-66
2022/01/17 01:10:17;;;;;;;45.83;10.77;;;;;;;4.03;100.00;99078.78;5152096;27;20686;-66
2022/01/17 01:12:46;;;;;;;137.40;13.97;;;;;;;3.87;100.00;99087.00;5152137;27;20610;-66
2022/01/17 01:15:19;;;;;;;62.70;9.70;;;;;;;4.16;100.00;99088.66;5152182;27;20591;-66
2022/01/17 01:17:52;;;;;;;49.23;9.57;;;;;;;4.10;100.00;99079.66;5152181;27;20632;-66
2022/01/17 01:20:33;;;;;;;70.70;11.57;;;;;;;4.29;100.00;99086.09;5151985;27;20641;-66
2022/01/17 01:28:28;;;;;;;74.17;9.10;;;;;;;4.31;100.00;99087.53;5144379;27;20612;-66
2022/01/17 01:30:59;;;;;;;80.60;11.10;;;;;;;4.31;100.00;99084.88;5151905;27;20638;-66
2022/01/17 01:33:29;;;;;;;51.30;9.30;;;;;;;4.00;100.00;99067.78;5143784;27;20611;-66
2022/01/17 01:35:59;;;;;;;41.63;8.57;;;;;;;4.28;100.00;99069.41;5151642;27;20615;-66
2022/01/17 01:38:26;;;;;;;57.00;9.80;;;;;;;4.29;100.00;99063.13;5151498;27;20706;-66
2022/01/17 01:40:52;;;;;;;48.13;8.67;;;;;;;4.27;100.00;99062.47;5133546;27;20606;-66
2022/01/17 01:43:19;;;;;;;55.60;9.80;;;;;;;4.24;100.00;99068.16;5151437;27;20606;-66
2022/01/17 01:45:47;;;;;;;67.97;10.63;;;;;;;4.21;100.00;99073.81;5151582;27;20602;-66
2022/01/17 01:48:18;;;;;;;77.33;10.83;;;;;;;4.19;100.00;99069.75;5151421;27;20617;-66
2022/01/17 01:50:45;;;;;;;80.00;11.13;;;;;;;4.30;100.00;99067.38;5151286;27;20653;-66
2022/01/17 01:53:12;;;;;;;68.17;10.47;;;;;;;4.34;100.00;99076.56;5151296;27;20626;-65
2022/01/17 01:55:38;;;;;;;49.33;9.27;;;;;;;4.22;100.00;99072.81;5151337;27;20633;-67
2022/01/17 01:58:05;;;;;;;65.13;10.13;;;;;;;4.22;100.00;99072.00;5151267;27;20682;-66
2022/01/17 02:00:31;;;;;;;75.00;10.13;;;;;;;4.24;100.00;99075.28;5151172;27;20618;-65
2022/01/17 02:02:58;;;;;;;67.90;10.40;;;;;;;4.23;100.00;99068.34;5151085;27;20591;-67
2022/01/17 02:05:26;;;;;;;53.30;8.37;;;;;;;4.14;100.00;99072.16;5151206;27;20638;-66
2022/01/17 02:07:53;;;;;;;79.60;10.00;;;;;;;4.12;100.00;99069.69;5151239;27;20587;-66
2022/01/17 02:10:19;;;;;;;64.50;8.80;;;;;;;4.15;100.00;99068.50;5151030;27;20599;-65
2022/01/17 02:12:46;;;;;;;77.43;9.90;;;;;;;4.12;100.00;99077.63;5150143;27;20626;-66
2022/01/17 02:15:13;;;;;;;63.37;9.13;;;;;;;4.15;100.00;99056.09;5150996;27;20595;-66
2022/01/17 02:17:45;;;;;;;91.13;10.40;;;;;;;4.08;100.00;99041.22;5151020;27;20642;-66
2022/01/17 02:20:17;;;;;;;118.33;11.40;;;;;;;4.28;100.00;99029.75;5150890;27;20664;-66
2022/01/17 02:22:44;;;;;;;86.10;9.10;;;;;;;4.16;100.00;99039.22;5150830;27;20610;-66
2022/01/17 02:25:11;;;;;;;61.90;9.00;;;;;;;4.18;100.00;99021.34;5149278;27;20638;-66
2022/01/17 02:27:38;;;;;;;99.50;11.93;;;;;;;4.17;100.00;99029.47;5150612;27;20613;-66
2022/01/17 02:30:05;;;;;;;112.13;12.50;;;;;;;4.14;100.00;99029.88;5150545;27;20617;-66
2022/01/17 02:32:33;;;;;;;58.63;10.57;;;;;;;4.16;100.00;99027.84;5150703;27;20645;-66
2022/01/17 02:35:12;;;;;;;54.07;8.80;;;;;;;3.77;100.00;99036.34;5150771;27;20610;-66
2022/01/17 02:37:39;;;;;;;55.33;9.60;;;;;;;3.75;100.00;99035.69;5150699;27;20583;-66
2022/01/17 02:40:08;;;;;;;29.57;8.00;;;;;;;3.68;100.00;99040.91;5150764;27;20638;-65
2022/01/17 02:42:36;;;;;;;74.57;11.80;;;;;;;3.77;100.00;99049.53;5150614;27;20629;-66
2022/01/17 02:45:11;;;;;;;74.97;10.00;;;;;;;3.69;100.00;99058.41;5150706;27;20617;-66
2022/01/17 02:47:38;;;;;;;72.80;11.13;;;;;;;3.71;100.00;99061.66;5150551;27;20645;-66
2022/01/17 02:50:05;;;;;;;33.30;8.53;;;;;;;3.75;100.00;99060.28;5150311;27;20607;-66
2022/01/17 02:52:32;;;;;;;52.17;8.10;;;;;;;3.78;100.00;99059.91;5150344;27;20670;-66
2022/01/17 02:55:00;;;;;;;49.57;8.70;;;;;;;3.83;100.00;99058.53;5132066;28;20607;-66
2022/01/17 02:57:28;;;;;;;81.97;11.00;;;;;;;3.80;100.00;99044.69;5150258;27;21196;-66
2022/01/17 02:59:55;;;;;;;43.93;8.70;;;;;;;3.82;100.00;99052.41;5150539;27;20610;-65
2022/01/17 03:02:22;;;;;;;63.80;10.73;;;;;;;3.87;100.00;99050.00;5141929;28;20591;-65
2022/01/17 03:04:49;;;;;;;64.10;9.07;;;;;;;3.88;100.00;99056.94;5150272;28;20605;-65
2022/01/17 03:07:15;;;;;;;103.37;10.77;;;;;;;3.67;100.00;99039.31;5150167;28;20611;-65
2022/01/17 03:09:54;;;;;;;70.57;10.80;;;;;;;3.77;100.00;99023.94;5150299;28;20603;-65
2022/01/17 03:12:22;;;;;;;50.57;8.87;;;;;;;3.67;100.00;99022.63;5150079;28;20649;-65
2022/01/17 03:14:49;;;;;;;84.67;10.10;;;;;;;3.74;100.00;99021.66;5150278;28;20594;-65
2022/01/17 03:17:16;;;;;;;35.90;6.73;;;;;;;3.69;100.00;99010.84;5150151;28;20632;-65
2022/01/17 03:19:42;;;;;;;80.13;8.90;;;;;;;3.64;100.00;99013.28;5150170;28;20600;-65
2022/01/17 03:22:09;;;;;;;81.27;10.13;;;;;;;3.68;100.00;99008.44;5150019;27;20595;-65
2022/01/17 03:24:35;;;;;;;72.00;10.47;;;;;;;3.73;100.00;99017.41;5154123;27;20685;-66
2022/01/17 03:27:02;;;;;;;80.07;10.80;;;;;;;3.75;100.00;99009.28;5154278;27;20599;-65
2022/01/17 03:29:30;;;;;;;65.80;9.33;;;;;;;3.90;100.00;99012.63;5154062;27;20630;-65
2022/01/17 03:31:57;;;;;;;46.57;7.10;;;;;;;3.77;100.00;99028.41;5154294;27;20677;-65
2022/01/17 03:34:23;;;;;;;51.77;7.90;;;;;;;3.74;100.00;99019.00;5154137;27;21298;-65
2022/01/17 03:36:50;;;;;;;61.43;9.13;;;;;;;3.81;100.00;99021.69;5154215;27;21062;-66
2022/01/17 03:39:17;;;;;;;51.17;6.37;;;;;;;3.64;100.00;99025.66;5135821;27;20615;-65
2022/01/17 03:41:43;;;;;;;51.70;8.07;;;;;;;3.68;100.00;99027.72;5153898;27;20622;-65
2022/01/17 03:44:10;;;;;;;39.73;7.40;;;;;;;3.84;100.00;99023.16;5154034;27;20598;-65
2022/01/17 03:46:38;;;;;;;81.27;10.70;;;;;;;3.78;100.00;99028.19;5153736;27;20607;-65
2022/01/17 03:49:04;;;;;;;46.57;8.00;;;;;;;3.86;100.00;99024.59;5153614;27;20635;-65
2022/01/17 03:51:31;;;;;;;65.90;9.00;;;;;;;3.93;100.00;99022.00;5153723;27;21424;-66
2022/01/17 03:53:58;;;;;;;71.47;8.70;;;;;;;3.92;100.00;99010.63;5153479;27;20610;-66
2022/01/17 03:56:24;;;;;;;62.83;9.83;;;;;;;3.95;100.00;99012.88;5153702;27;20625;-65
2022/01/17 03:58:51;;;;;;;42.90;7.40;;;;;;;3.96;100.00;99003.91;5153943;27;20621;-65
2022/01/17 04:01:19;;;;;;;53.23;7.83;;;;;;;3.73;100.00;98993.63;5153690;27;20608;-65
2022/01/17 04:03:47;;;;;;;92.10;10.77;;;;;;;3.73;100.00;98990.97;5153521;27;20610;-65
2022/01/17 04:06:15;;;;;;;26.47;6.37;;;;;;;3.89;100.00;99004.91;5153787;27;20610;-66
2022/01/17 04:08:41;;;;;;;59.30;10.10;;;;;;;3.87;100.00;99013.00;5153575;27;20602;-65
2022/01/17 04:11:08;;;;;;;50.97;8.43;;;;;;;3.83;100.00;99006.50;5153377;27;20606;-65
2022/01/17 04:13:35;;;;;;;72.20;10.30;;;;;;;3.88;100.00;99003.25;5153476;27;20649;-65
2022/01/17 04:16:03;;;;;;;61.30;9.43;;;;;;;3.91;100.00;99018.72;5153407;27;20693;-65
2022/01/17 04:18:29;;;;;;;53.57;9.40;;;;;;;3.98;100.00;99014.31;5153352;27;20651;-65
2022/01/17 04:21:01;;;;;;;100.50;12.50;;;;;;;3.90;100.00;99017.91;5153421;27;20644;-65
2022/01/17 04:23:27;;;;;;;52.13;9.60;;;;;;;3.92;100.00;99015.09;5145504;27;20618;-65
2022/01/17 04:25:54;;;;;;;54.53;8.43;;;;;;;3.84;100.00;99023.97;5135229;27;20970;-65
2022/01/17 04:28:21;;;;;;;61.50;8.90;;;;;;;3.95;100.00;99012.88;5153245;27;20590;-65
2022/01/17 04:30:47;;;;;;;61.53;9.07;;;;;;;3.94;100.00;99013.88;5153073;27;20614;-64
2022/01/17 04:33:15;;;;;;;83.70;11.33;;;;;;;3.98;100.00;99004.56;5152867;27;21402;-65
2022/01/17 04:35:43;;;;;;;78.13;10.40;;;;;;;4.01;100.00;98998.06;5152171;27;20599;-65
2022/01/17 04:38:15;;;;;;;83.43;11.30;;;;;;;3.84;100.00;99002.81;5152905;27;20646;-65
2022/01/17 04:40:45;;;;;;;52.10;6.93;;;;;;;3.84;100.00;98983.53;5152942;27;20668;-66
2022/01/17 15:09:30;;;;;;;17.83;3.93;;;;;;;5.02;100.00;99074.00;5127814;27;20344;-76
2022/01/17 15:11:56;;;;;;;37.00;4.23;;;;;;;5.02;100.00;99093.34;5120208;28;20615;-76
2022/01/17 15:14:23;;;;;;;51.10;5.63;;;;;;;4.95;100.00;99074.00;5118339;28;20605;-76
2022/01/17 15:16:50;;;;;;;49.57;5.67;;;;;;;5.02;100.00;99069.53;5117007;28;20616;-76
2022/01/17 15:19:16;;;;;;;25.37;4.00;;;;;;;4.97;100.00;99085.22;5118433;28;20605;-76
2022/01/17 15:21:43;;;;;;;63.03;6.03;;;;;;;5.00;100.00;99084.81;5118997;28;20822;-76
2022/01/17 15:24:10;;;;;;;26.60;3.60;;;;;;;4.92;100.00;99087.63;5111964;28;20616;-77
2022/01/17 15:26:38;;;;;;;36.70;5.17;;;;;;;5.03;100.00;99107.41;5115481;28;20834;-76
2022/01/17 15:29:06;;;;;;;37.63;4.90;;;;;;;5.03;100.00;99115.38;5115656;28;21255;-76
2022/01/17 15:31:35;;;;;;;31.83;4.40;;;;;;;4.89;100.00;99115.31;5117929;28;20917;-76
2022/01/17 15:34:02;;;;;;;43.27;5.70;;;;;;;5.00;100.00;99121.06;5118176;28;20645;-76
2022/01/17 15:36:30;;;;;;;42.23;5.30;;;;;;;4.82;100.00;99125.06;5115688;28;20628;-76
2022/01/17 15:38:57;;;;;;;45.40;5.50;;;;;;;4.89;100.00;99133.81;5115317;28;20626;-76
2022/01/17 15:41:23;;;;;;;30.53;4.60;;;;;;;4.90;100.00;99150.53;5120382;28;20581;-76
2022/01/17 15:43:55;;;;;;;9.80;2.17;;;;;;;4.86;100.00;99147.47;5121204;28;20802;-76
2022/01/17 15:46:22;;;;;;;67.37;5.27;;;;;;;4.90;100.00;99147.88;5123975;28;20643;-76
2022/01/17 15:48:49;;;;;;;34.53;3.47;;;;;;;4.87;100.00;99158.88;5120997;28;20592;-76
2022/01/17 15:51:15;;;;;;;15.73;3.40;;;;;;;4.83;100.00;99162.91;5115931;28;20623;-76
2022/01/17 15:53:42;;;;;;;20.57;3.97;;;;;;;4.93;100.00;99167.84;5115662;28;20627;-77
2022/01/17 15:56:09;;;;;;;58.07;6.03;;;;;;;5.00;100.00;99174.00;5114412;28;20600;-76
2022/01/17 15:58:36;;;;;;;23.67;3.80;;;;;;;4.86;100.00;99178.41;5115296;28;20604;-76
2022/01/17 16:01:04;;;;;;;79.20;5.87;;;;;;;4.78;100.00;99179.38;5114518;28;20612;-76
2022/01/17 16:03:31;;;;;;;79.00;6.87;;;;;;;4.94;100.00;99185.38;5117350;28;20603;-76
2022/01/17 16:05:58;;;;;;;53.30;5.93;;;;;;;4.99;100.00;99189.06;5118712;28;20596;-77
2022/01/17 16:08:25;;;;;;;36.80;5.50;;;;;;;4.99;100.00;99181.13;5115124;28;20601;-76
2022/01/17 16:10:52;;;;;;;53.00;4.90;;;;;;;4.90;100.00;99193.72;5114907;28;20608;-76
2022/01/17 16:13:21;;;;;;;15.00;2.70;;;;;;;4.86;100.00;99207.50;5117890;28;20607;-77
2022/01/17 16:15:50;;;;;;;55.80;5.53;;;;;;;4.84;100.00;99202.44;5117096;28;20615;-76
2022/01/17 16:18:18;;;;;;;62.80;5.80;;;;;;;4.83;100.00;99197.31;5114447;28;20587;-77
2022/01/17 16:20:46;;;;;;;55.50;5.93;;;;;;;4.81;100.00;99196.69;5101584;28;20654;-76
2022/01/17 16:23:13;;;;;;;23.57;3.13;;;;;;;4.85;100.00;99192.66;5101862;28;20604;-76
2022/01/17 16:25:40;;;;;;;34.60;4.90;;;;;;;4.87;100.00;99194.09;5097252;28;20657;-76
2022/01/17 16:28:07;;;;;;;27.40;4.17;;;;;;;4.92;100.00;99188.22;5102669;28;20600;-76
2022/01/17 16:30:34;;;;;;;79.93;7.70;;;;;;;4.93;100.00;99173.16;5099753;28;20593;-76
2022/01/17 16:33:02;;;;;;;55.90;5.73;;;;;;;4.86;100.00;99181.88;5099852;28;20667;-75
2022/01/17 16:35:30;;;;;;;49.10;4.63;;;;;;;4.88;100.00;99189.63;5103854;28;20626;-76
2022/01/17 16:37:58;;;;;;;26.13;4.33;;;;;;;4.88;100.00;99190.44;5104180;28;20605;-76
2022/01/17 16:40:26;;;;;;;36.97;4.73;;;;;;;4.75;100.00;99203.59;5100443;28;20627;-76
2022/01/17 16:42:52;;;;;;;36.33;5.20;;;;;;;4.82;100.00;99211.59;5101085;28;20604;-76
2022/01/17 16:45:19;;;;;;;49.77;5.53;;;;;;;4.87;100.00;99217.09;5103669;28;20630;-76
2022/01/17 16:47:46;;;;;;;60.20;6.17;;;;;;;4.77;100.00;99217.44;5104215;28;20662;-77
2022/01/17 16:50:13;;;;;;;33.00;5.00;;;;;;;4.89;100.00;99210.59;5102023;28;20596;-77
2022/01/17 16:52:42;;;;;;;44.70;5.93;;;;;;;4.91;100.00;99218.34;5099420;28;21227;-77
2022/01/17 16:55:11;;;;;;;41.37;5.70;;;;;;;4.93;100.00;99202.25;5096294;28;20609;-77
2022/01/17 16:57:37;;;;;;;43.93;5.03;;;;;;;4.97;100.00;99207.00;5102866;28;20626;-77
2022/01/17 17:00:05;;;;;;;35.23;6.10;;;;;;;4.82;100.00;99214.22;5102258;28;20597;-77
2022/01/17 17:02:32;;;;;;;27.57;4.90;;;;;;;4.81;100.00;99207.28;5099441;28;20636;-77
2022/01/17 17:04:59;;;;;;;41.50;5.00;;;;;;;4.84;100.00;99206.91;5098942;28;20601;-77
2022/01/17 17:07:26;;;;;;;24.40;4.00;;;;;;;4.86;100.00;99208.34;5102768;28;20608;-77
2022/01/17 17:09:54;;;;;;;57.47;5.70;;;;;;;4.91;100.00;99210.41;5102736;28;20620;-78
2022/01/17 17:12:20;;;;;;;8.20;4.07;;;;;;;4.81;100.00;99220.53;5100247;28;20609;-77
2022/01/17 17:14:47;;;;;;;31.80;4.57;;;;;;;4.96;100.00;99231.00;5100667;28;20597;-77
2022/01/17 17:17:14;;;;;;;66.17;8.40;;;;;;;4.89;100.00;99228.31;5101778;28;20617;-77
2022/01/17 17:19:41;;;;;;;93.23;8.23;;;;;;;4.83;100.00;99244.97;5103949;28;20600;-77
2022/01/17 17:22:14;;;;;;;79.70;8.33;;;;;;;4.83;100.00;99244.97;5100947;28;20638;-76
2022/01/17 17:24:41;;;;;;;15.40;4.37;;;;;;;4.82;100.00;99252.09;5093802;28;20609;-77
2022/01/17 17:27:09;;;;;;;22.90;4.70;;;;;;;4.79;100.00;99251.66;5102287;28;20621;-76
2022/01/17 17:29:36;;;;;;;41.03;6.10;;;;;;;4.70;100.00;99243.06;5103655;28;20604;-76
2022/01/17 17:32:04;;;;;;;38.43;5.67;;;;;;;4.69;100.00;99236.13;5107115;28;20626;-76
2022/01/17 17:34:31;;;;;;;40.57;6.83;;;;;;;4.82;100.00;99257.41;5104454;28;20628;-76
2022/01/17 17:36:58;;;;;;;37.87;6.07;;;;;;;4.94;100.00;99255.03;5103876;28;20602;-76
2022/01/17 17:39:26;;;;;;;70.90;7.50;;;;;;;4.80;100.00;99259.41;5101583;28;20621;-76
2022/01/17 17:41:53;;;;;;;29.47;5.00;;;;;;;4.82;100.00;99264.53;5100372;28;20631;-76
2022/01/17 17:44:22;;;;;;;28.07;4.87;;;;;;;4.87;100.00;99268.22;5103850;28;20643;-77
2022/01/17 17:46:49;;;;;;;30.53;4.90;;;;;;;4.81;100.00;99265.53;5103930;28;20624;-76
2022/01/17 17:49:16;;;;;;;20.90;4.93;;;;;;;4.82;100.00;99264.53;5105822;28;20666;-76
2022/01/17 17:51:43;;;;;;;57.33;5.83;;;;;;;4.87;100.00;99276.16;5099621;28;20610;-77
2022/01/17 17:54:10;;;;;;;27.10;5.40;;;;;;;4.91;100.00;99287.19;5098605;28;20610;-77
2022/01/17 17:56:38;;;;;;;21.67;4.87;;;;;;;4.82;100.00;99293.63;5095956;28;20605;-77
2022/01/17 17:59:05;;;;;;;21.00;4.20;;;;;;;4.82;100.00;99294.47;5102479;28;20612;-76
2022/01/17 18:01:33;;;;;;;8.37;2.93;;;;;;;5.01;100.00;99295.63;5098742;28;20610;-77
2022/01/17 18:04:00;;;;;;;44.73;5.70;;;;;;;4.87;100.00;99294.69;5098153;28;20651;-77
2022/01/17 18:06:26;;;;;;;81.47;7.03;;;;;;;4.90;100.00;99301.41;5101359;28;20611;-77
2022/01/17 18:08:53;;;;;;;78.17;6.77;;;;;;;4.92;100.00;99299.38;5101252;28;20632;-77
2022/01/17 18:11:20;;;;;;;23.43;5.57;;;;;;;5.01;100.00;99303.56;5100179;28;20863;-77
2022/01/17 18:13:47;;;;;;;20.53;5.00;;;;;;;5.03;100.00;99322.69;5098453;28;20606;-77
2022/01/17 18:16:14;;;;;;;17.30;4.40;;;;;;;4.90;100.00;99320.78;5100507;28;20626;-77
2022/01/17 18:18:44;;;;;;;29.17;5.23;;;;;;;4.89;100.00;99321.78;5102662;28;21424;-77
2022/01/17 18:21:11;;;;;;;69.93;7.50;;;;;;;4.90;100.00;99317.31;5101457;28;20586;-76
2022/01/17 18:23:38;;;;;;;81.60;8.87;;;;;;;4.85;100.00;99309.97;5098938;28;20602;-77
2022/01/17 18:26:04;;;;;;;16.17;3.97;;;;;;;4.93;100.00;99310.78;5098170;28;20617;-76
2022/01/17 18:28:31;;;;;;;27.80;5.17;;;;;;;4.92;100.00;99319.78;5099289;28;20789;-77
2022/01/17 18:30:58;;;;;;;27.23;5.10;;;;;;;4.84;100.00;99310.13;5099194;28;20847;-77
2022/01/17 18:33:25;;;;;;;30.57;5.67;;;;;;;4.87;100.00;99307.09;5091547;28;20598;-78
2022/01/17 18:35:54;;;;;;;47.57;6.80;;;;;;;4.89;100.00;99305.06;5091447;28;20631;-77
2022/01/17 18:38:21;;;;;;;48.40;6.77;;;;;;;4.90;100.00;99304.88;5090491;28;21213;-77
2022/01/17 18:40:48;;;;;;;38.77;5.97;;;;;;;4.79;100.00;99321.31;5090831;28;20594;-77
2022/01/17 18:43:15;;;;;;;54.73;10.70;;;;;;;6.07;100.00;99311.00;5097610;28;20670;-77
2022/01/17 18:45:41;;;;;;;648.53;576.90;;;;;;;9.33;100.00;99298.56;5094998;28;20638;-77
2022/01/17 18:48:08;;;;;;;249.40;182.93;;;;;;;10.33;100.00;99297.16;5099661;28;20616;-77
2022/01/17 18:50:35;;;;;;;38.07;5.30;;;;;;;10.59;100.00;99301.28;5098494;28;20614;-77
2022/01/17 18:53:04;;;;;;;30.83;4.83;;;;;;;8.24;100.00;99306.19;5100702;28;21030;-77
2022/01/17 18:55:31;;;;;;;54.30;8.80;;;;;;;7.20;100.00;99313.53;5094669;28;20634;-77
2022/01/17 18:57:59;;;;;;;43.10;6.50;;;;;;;6.76;100.00;99327.47;5101042;28;20613;-77
2022/01/17 19:00:27;;;;;;;47.87;7.13;;;;;;;6.21;100.00;99325.13;5097706;28;20627;-77
2022/01/17 19:02:53;;;;;;;18.57;5.43;;;;;;;6.08;100.00;99306.53;5097317;28;20659;-77
2022/01/17 19:05:22;;;;;;;21.53;5.10;;;;;;;5.92;100.00;99327.09;5101712;28;20617;-77
2022/01/17 19:07:49;;;;;;;93.20;8.17;;;;;;;5.82;100.00;99321.28;5101823;28;20612;-77
2022/01/17 19:10:17;;;;;;;31.87;4.80;;;;;;;5.68;100.00;99308.19;5099435;28;20604;-77
2022/01/17 19:12:44;;;;;;;35.90;5.57;;;;;;;5.51;100.00;99304.25;5097106;28;20856;-77
2022/01/17 19:15:11;;;;;;;17.80;4.50;;;;;;;5.58;100.00;99310.38;5099191;28;20609;-77
2022/01/17 19:17:51;;;;;;;44.60;6.70;;;;;;;5.57;100.00;99320.16;5100800;28;20643;-77
2022/01/17 19:20:27;;;;;;;22.67;4.47;;;;;;;5.37;100.00;99324.56;5098324;28;21013;-77
2022/01/17 19:22:55;;;;;;;31.40;5.53;;;;;;;5.41;100.00;99317.84;5098553;28;20651;-77
2022/01/17 19:25:24;;;;;;;39.80;6.23;;;;;;;5.42;100.00;99312.34;5093509;28;20588;-76
2022/01/17 19:27:51;;;;;;;11.17;4.63;;;;;;;5.40;100.00;99310.91;5108044;28;20580;-78
2022/01/17 19:30:18;;;;;;;50.17;6.60;;;;;;;5.34;100.00;99324.94;5107003;28;20622;-78
2022/01/17 19:32:45;;;;;;;37.43;5.70;;;;;;;5.19;100.00;99319.75;5106345;28;20597;-78
2022/01/17 19:35:13;;;;;;;33.33;5.00;;;;;;;5.19;100.00;99317.13;5104636;28;20601;-78
2022/01/17 19:37:39;;;;;;;76.37;8.53;;;;;;;5.32;100.00;99329.63;5101156;28;20890;-78
2022/01/17 19:40:08;;;;;;;41.90;5.27;;;;;;;5.33;100.00;99333.88;5099821;28;20585;-78
2022/01/17 19:42:36;;;;;;;37.77;5.50;;;;;;;5.39;100.00;99328.63;5097213;28;20624;-78
2022/01/17 19:45:04;;;;;;;44.73;6.87;;;;;;;5.33;100.00;99333.88;5098068;28;20593;-78
2022/01/17 19:47:30;;;;;;;27.23;5.30;;;;;;;5.32;100.00;99341.00;5102080;28;20600;-78
2022/01/17 19:49:57;;;;;;;45.77;6.70;;;;;;;5.23;100.00;99339.53;5102216;28;21023;-78
2022/01/17 19:52:24;;;;;;;35.20;7.20;;;;;;;5.03;100.00;99343.06;5098128;28;20618;-77
2022/01/17 19:54:50;;;;;;;40.23;6.20;;;;;;;5.24;100.00;99349.13;5091700;28;20610;-77
2022/01/17 19:57:17;;;;;;;54.60;7.03;;;;;;;5.27;100.00;99355.84;5104537;28;20610;-77
2022/01/17 19:59:46;;;;;;;20.93;5.70;;;;;;;5.24;100.00;99365.00;5103809;28;21025;-77
2022/01/17 20:02:14;;;;;;;51.47;7.03;;;;;;;5.28;100.00;99365.44;5103326;28;21075;-77
2022/01/17 20:04:41;;;;;;;58.67;7.60;;;;;;;5.17;100.00;99364.13;5100367;28;20605;-77
2022/01/17 20:07:07;;;;;;;27.47;5.97;;;;;;;5.20;100.00;99366.41;5103064;28;20606;-77
2022/01/17 20:09:34;;;;;;;25.43;5.60;;;;;;;5.18;100.00;99376.38;5104784;28;21003;-77
2022/01/17 20:12:01;;;;;;;29.63;6.10;;;;;;;5.14;100.00;99390.19;5104868;28;20729;-77
2022/01/17 20:14:27;;;;;;;43.70;6.77;;;;;;;5.22;100.00;99390.88;5102367;28;20613;-77
2022/01/17 20:16:55;;;;;;;40.37;6.30;;;;;;;5.11;100.00;99388.75;5101288;28;20615;-77
2022/01/17 20:19:22;;;;;;;67.73;9.17;;;;;;;5.25;100.00;99394.97;5104212;28;20625;-77
2022/01/17 20:21:49;;;;;;;41.67;6.70;;;;;;;5.29;100.00;99398.88;5105122;28;20862;-77
2022/01/17 20:24:17;;;;;;;51.37;7.07;;;;;;;5.07;100.00;99397.28;5095253;28;20609;-78
2022/01/17 20:26:45;;;;;;;86.77;9.10;;;;;;;5.24;100.00;99403.91;5100287;28;20592;-78
2022/01/17 20:29:12;;;;;;;30.93;4.93;;;;;;;5.31;100.00;99416.22;5102004;28;20612;-77
2022/01/17 20:31:38;;;;;;;27.23;6.00;;;;;;;5.25;100.00;99417.00;5104047;28;20666;-78
2022/01/17 20:34:07;;;;;;;49.27;6.83;;;;;;;5.17;100.00;99409.16;5102970;28;20604;-78
2022/01/17 20:36:35;;;;;;;34.73;6.17;;;;;;;5.23;100.00;99418.19;5101044;28;20602;-76
2022/01/17 20:39:02;;;;;;;79.13;7.93;;;;;;;5.10;100.00;99426.03;5101817;28;20608;-78
2022/01/17 20:41:29;;;;;;;31.20;6.30;;;;;;;5.13;100.00;99434.41;5105092;28;20592;-77
2022/01/17 20:43:56;;;;;;;94.63;9.90;;;;;;;5.11;100.00;99444.34;5103680;28;20616;-77
2022/01/17 20:46:23;;;;;;;59.20;7.87;;;;;;;5.19;100.00;99454.84;5100471;28;20629;-77
2022/01/17 20:48:49;;;;;;;14.53;5.07;;;;;;;5.19;100.00;99446.88;5100867;28;20608;-77
2022/01/17 20:51:18;;;;;;;67.63;8.07;;;;;;;5.18;100.00;99455.84;5104237;28;20593;-77
2022/01/17 20:53:45;;;;;;;42.67;6.27;;;;;;;5.15;100.00;99437.69;5100009;28;20597;-77
2022/01/17 20:56:12;;;;;;;23.70;5.53;;;;;;;5.31;100.00;99449.84;5101187;28;20593;-76
2022/01/17 20:58:39;;;;;;;32.67;5.90;;;;;;;5.36;100.00;99450.88;5100117;28;20590;-77
2022/01/17 21:01:06;;;;;;;23.47;5.53;;;;;;;5.21;100.00;99455.44;5100965;28;20897;-77
2022/01/17 21:03:32;;;;;;;23.10;5.37;;;;;;;5.14;100.00;99451.91;5103272;28;20634;-77
2022/01/17 21:05:59;;;;;;;19.73;5.33;;;;;;;5.13;100.00;99455.59;5104852;28;20619;-78
2022/01/17 21:08:27;;;;;;;53.50;8.70;;;;;;;5.18;100.00;99447.88;5100648;28;20601;-76
2022/01/17 21:10:54;;;;;;;71.30;9.63;;;;;;;5.20;100.00;99453.81;5100055;28;20662;-75
2022/01/17 21:13:20;;;;;;;77.97;9.20;;;;;;;5.13;100.00;99468.84;5103673;28;20604;-76
2022/01/17 21:15:47;;;;;;;66.13;8.20;;;;;;;5.10;100.00;99469.22;5103930;28;20600;-76
2022/01/17 21:18:14;;;;;;;35.07;6.60;;;;;;;5.15;100.00;99469.47;5100350;28;21200;-77
2022/01/17 21:20:41;;;;;;;32.63;8.20;;;;;;;5.15;100.00;99468.63;5099359;28;20651;-76
2022/01/17 21:23:08;;;;;;;36.17;6.90;;;;;;;5.08;100.00;99441.25;5102329;28;20678;-77
2022/01/17 21:25:40;;;;;;;46.43;7.63;;;;;;;5.19;100.00;99438.13;5095955;28;20612;-77
2022/01/17 21:28:06;;;;;;;37.87;7.60;;;;;;;5.12;100.00;99438.06;5103527;28;20612;-77
2022/01/17 21:30:33;;;;;;;47.07;7.37;;;;;;;5.17;100.00;99434.84;5101024;28;20655;-79
2022/01/17 21:33:00;;;;;;;40.83;7.80;;;;;;;5.10;100.00;99440.09;5099806;28;20601;-78
2022/01/17 21:35:27;;;;;;;63.70;7.97;;;;;;;5.18;100.00;99436.47;5102944;28;20605;-78
2022/01/17 21:37:54;;;;;;;37.73;7.27;;;;;;;5.12;100.00;99446.00;5103755;28;20604;-77
2022/01/17 21:40:20;;;;;;;37.67;7.87;;;;;;;5.22;100.00;99445.69;5099394;28;20617;-77
2022/01/17 21:42:48;;;;;;;26.47;6.33;;;;;;;5.11;100.00;99457.59;5098969;28;20602;-77
2022/01/17 21:45:15;;;;;;;54.10;9.00;;;;;;;5.26;100.00;99458.34;5103407;28;20601;-77
2022/01/17 21:47:52;;;;;;;48.07;7.43;;;;;;;5.27;100.00;99461.81;5106453;28;20614;-77
2022/01/17 21:50:19;;;;;;;30.97;7.60;;;;;;;5.23;100.00;99456.06;5105112;28;20609;-77
2022/01/17 21:52:46;;;;;;;43.10;6.70;;;;;;;5.28;100.00;99458.16;5104006;28;20605;-76
2022/01/17 21:55:15;;;;;;;44.87;8.50;;;;;;;5.15;100.00;99453.56;5099696;28;20601;-77
2022/01/17 21:57:42;;;;;;;35.43;6.47;;;;;;;5.23;100.00;99456.06;5106660;28;20604;-77